sensor_id;sensor_type;location;lat;lon;timestamp;temperature;humidity
61117;DHT22;47002;50.856;6.580;2023-01-09T00:00:22;5.20;85.90
61117;DHT22;47002;50.856;6.580;2023-01-09T00:02:48;5.30;85.80
61117;DHT22;47002;50.856;6.580;2023-01-09T00:05:15;5.30;85.80
61117;DHT22;47002;50.856;6.580;2023-01-09T00:07:41;5.30;85.90
61117;DHT22;47002;50.856;6.580;2023-01-09T00:10:08;5.30;85.70
61117;DHT22;47002;50.856;6.580;2023-01-09T00:12:34;5.30;86.00
61117;DHT22;47002;50.856;6.580;2023-01-09T00:15:00;5.20;86.30
61117;DHT22;47002;50.856;6.580;2023-01-09T00:17:27;5.20;86.60
61117;DHT22;47002;50.856;6.580;2023-01-09T00:19:53;5.10;86.50
61117;DHT22;47002;50.856;6.580;2023-01-09T00:22:19;5.20;86.40
61117;DHT22;47002;50.856;6.580;2023-01-09T00:24:45;5.20;86.40
61117;DHT22;47002;50.856;6.580;2023-01-09T00:27:10;5.10;86.60
61117;DHT22;47002;50.856;6.580;2023-01-09T00:29:36;5.10;86.60
61117;DHT22;47002;50.856;6.580;2023-01-09T00:32:02;5.10;86.70
61117;DHT22;47002;50.856;6.580;2023-01-09T00:34:29;5.10;86.80
61117;DHT22;47002;50.856;6.580;2023-01-09T00:36:54;5.10;86.80
61117;DHT22;47002;50.856;6.580;2023-01-09T00:39:20;5.20;87.00
61117;DHT22;47002;50.856;6.580;2023-01-09T00:41:48;5.20;86.60
61117;DHT22;47002;50.856;6.580;2023-01-09T00:44:18;5.30;86.40
61117;DHT22;47002;50.856;6.580;2023-01-09T00:46:46;5.30;86.40
61117;DHT22;47002;50.856;6.580;2023-01-09T00:49:14;5.40;86.30
61117;DHT22;47002;50.856;6.580;2023-01-09T00:51:42;5.50;86.20
61117;DHT22;47002;50.856;6.580;2023-01-09T00:54:08;5.50;86.20
61117;DHT22;47002;50.856;6.580;2023-01-09T00:56:36;5.50;86.40
61117;DHT22;47002;50.856;6.580;2023-01-09T00:59:02;5.50;86.70
61117;DHT22;47002;50.856;6.580;2023-01-09T01:01:28;5.50;86.80
61117;DHT22;47002;50.856;6.580;2023-01-09T01:03:54;5.50;87.00
61117;DHT22;47002;50.856;6.580;2023-01-09T01:06:19;5.50;86.80
61117;DHT22;47002;50.856;6.580;2023-01-09T01:08:46;5.40;86.90
61117;DHT22;47002;50.856;6.580;2023-01-09T01:11:12;5.50;86.90
61117;DHT22;47002;50.856;6.580;2023-01-09T01:13:40;5.40;87.00
61117;DHT22;47002;50.856;6.580;2023-01-09T01:16:07;5.40;87.20
61117;DHT22;47002;50.856;6.580;2023-01-09T01:18:33;5.30;87.50
61117;DHT22;47002;50.856;6.580;2023-01-09T01:20:59;5.30;87.60
61117;DHT22;47002;50.856;6.580;2023-01-09T01:23:25;5.30;87.70
61117;DHT22;47002;50.856;6.580;2023-01-09T01:25:52;5.20;87.70
61117;DHT22;47002;50.856;6.580;2023-01-09T01:28:18;5.30;87.70
61117;DHT22;47002;50.856;6.580;2023-01-09T01:30:43;5.30;87.80
61117;DHT22;47002;50.856;6.580;2023-01-09T01:33:10;5.30;87.70
61117;DHT22;47002;50.856;6.580;2023-01-09T01:35:36;5.30;87.70
61117;DHT22;47002;50.856;6.580;2023-01-09T01:38:02;5.20;87.80
61117;DHT22;47002;50.856;6.580;2023-01-09T01:40:27;5.20;87.80
61117;DHT22;47002;50.856;6.580;2023-01-09T01:42:55;5.20;87.90
61117;DHT22;47002;50.856;6.580;2023-01-09T01:45:22;5.10;88.00
61117;DHT22;47002;50.856;6.580;2023-01-09T01:47:55;5.00;88.10
61117;DHT22;47002;50.856;6.580;2023-01-09T01:50:26;5.00;88.20
61117;DHT22;47002;50.856;6.580;2023-01-09T01:52:58;4.90;88.50
61117;DHT22;47002;50.856;6.580;2023-01-09T01:55:25;4.90;88.60
61117;DHT22;47002;50.856;6.580;2023-01-09T01:57:56;4.90;88.60
61117;DHT22;47002;50.856;6.580;2023-01-09T02:00:28;4.90;88.50
61117;DHT22;47002;50.856;6.580;2023-01-09T02:02:55;4.90;88.30
61117;DHT22;47002;50.856;6.580;2023-01-09T02:05:20;4.90;88.30
61117;DHT22;47002;50.856;6.580;2023-01-09T02:07:46;5.00;88.20
61117;DHT22;47002;50.856;6.580;2023-01-09T02:10:12;5.00;88.10
61117;DHT22;47002;50.856;6.580;2023-01-09T02:12:38;5.10;88.00
61117;DHT22;47002;50.856;6.580;2023-01-09T02:15:08;5.10;87.80
61117;DHT22;47002;50.856;6.580;2023-01-09T02:18:01;5.10;87.40
61117;DHT22;47002;50.856;6.580;2023-01-09T02:20:46;5.10;87.20
61117;DHT22;47002;50.856;6.580;2023-01-09T02:23:40;5.20;87.20
61117;DHT22;47002;50.856;6.580;2023-01-09T02:32:35;5.10;87.30
61117;DHT22;47002;50.856;6.580;2023-01-09T02:35:15;5.20;87.40
61117;DHT22;47002;50.856;6.580;2023-01-09T02:37:45;5.20;87.20
61117;DHT22;47002;50.856;6.580;2023-01-09T02:40:20;5.10;86.90
61117;DHT22;47002;50.856;6.580;2023-01-09T02:42:47;5.20;86.50
61117;DHT22;47002;50.856;6.580;2023-01-09T02:45:14;5.20;86.30
61117;DHT22;47002;50.856;6.580;2023-01-09T02:47:43;5.30;86.20
61117;DHT22;47002;50.856;6.580;2023-01-09T02:50:12;5.20;86.40
61117;DHT22;47002;50.856;6.580;2023-01-09T02:55:50;5.10;86.70
61117;DHT22;47002;50.856;6.580;2023-01-09T02:58:26;5.00;86.70
61117;DHT22;47002;50.856;6.580;2023-01-09T03:00:58;5.00;86.50
61117;DHT22;47002;50.856;6.580;2023-01-09T03:03:35;5.00;85.50
61117;DHT22;47002;50.856;6.580;2023-01-09T03:06:06;5.00;85.10
61117;DHT22;47002;50.856;6.580;2023-01-09T03:08:37;5.00;84.80
61117;DHT22;47002;50.856;6.580;2023-01-09T03:11:05;4.90;84.90
61117;DHT22;47002;50.856;6.580;2023-01-09T03:13:36;4.90;84.50
61117;DHT22;47002;50.856;6.580;2023-01-09T03:16:05;5.00;84.40
61117;DHT22;47002;50.856;6.580;2023-01-09T03:18:35;5.00;84.40
61117;DHT22;47002;50.856;6.580;2023-01-09T03:21:01;5.00;84.00
61117;DHT22;47002;50.856;6.580;2023-01-09T03:23:44;5.00;84.30
61117;DHT22;47002;50.856;6.580;2023-01-09T03:26:10;4.90;84.30
61117;DHT22;47002;50.856;6.580;2023-01-09T03:28:36;4.90;83.80
61117;DHT22;47002;50.856;6.580;2023-01-09T03:31:02;4.90;83.80
61117;DHT22;47002;50.856;6.580;2023-01-09T03:33:27;4.90;84.70
61117;DHT22;47002;50.856;6.580;2023-01-09T03:35:54;5.10;85.60
61117;DHT22;47002;50.856;6.580;2023-01-09T03:38:20;5.10;82.50
61117;DHT22;47002;50.856;6.580;2023-01-09T03:40:46;5.10;82.70
61117;DHT22;47002;50.856;6.580;2023-01-09T03:43:11;4.90;83.00
61117;DHT22;47002;50.856;6.580;2023-01-09T03:45:37;4.80;83.10
61117;DHT22;47002;50.856;6.580;2023-01-09T03:48:03;4.70;83.40
61117;DHT22;47002;50.856;6.580;2023-01-09T03:50:29;4.60;83.60
61117;DHT22;47002;50.856;6.580;2023-01-09T03:52:56;4.50;83.80
61117;DHT22;47002;50.856;6.580;2023-01-09T03:55:22;4.50;83.90
61117;DHT22;47002;50.856;6.580;2023-01-09T03:57:48;4.40;84.20
61117;DHT22;47002;50.856;6.580;2023-01-09T04:00:14;4.30;84.50
61117;DHT22;47002;50.856;6.580;2023-01-09T04:02:39;4.10;84.80
61117;DHT22;47002;50.856;6.580;2023-01-09T04:05:06;4.10;85.10
61117;DHT22;47002;50.856;6.580;2023-01-09T04:07:32;3.90;85.30
61117;DHT22;47002;50.856;6.580;2023-01-09T04:09:59;3.80;85.50
61117;DHT22;47002;50.856;6.580;2023-01-09T04:12:25;3.80;85.70
61117;DHT22;47002;50.856;6.580;2023-01-09T04:14:50;3.70;85.90
61117;DHT22;47002;50.856;6.580;2023-01-09T04:17:16;3.50;86.30
61117;DHT22;47002;50.856;6.580;2023-01-09T04:19:42;3.50;86.50
61117;DHT22;47002;50.856;6.580;2023-01-09T04:22:07;3.40;86.80
61117;DHT22;47002;50.856;6.580;2023-01-09T04:24:33;3.40;86.90
61117;DHT22;47002;50.856;6.580;2023-01-09T04:27:00;3.50;86.70
61117;DHT22;47002;50.856;6.580;2023-01-09T04:29:26;3.60;86.50
61117;DHT22;47002;50.856;6.580;2023-01-09T04:31:51;3.70;86.20
61117;DHT22;47002;50.856;6.580;2023-01-09T04:34:17;3.80;85.90
61117;DHT22;47002;50.856;6.580;2023-01-09T04:36:43;3.90;85.70
61117;DHT22;47002;50.856;6.580;2023-01-09T04:39:09;4.00;85.60
61117;DHT22;47002;50.856;6.580;2023-01-09T04:41:34;4.00;85.50
61117;DHT22;47002;50.856;6.580;2023-01-09T04:44:01;4.10;85.40
61117;DHT22;47002;50.856;6.580;2023-01-09T04:46:27;4.10;85.10
61117;DHT22;47002;50.856;6.580;2023-01-09T04:48:53;4.20;84.70
61117;DHT22;47002;50.856;6.580;2023-01-09T04:51:18;4.30;84.40
61117;DHT22;47002;50.856;6.580;2023-01-09T04:53:44;4.30;84.20
61117;DHT22;47002;50.856;6.580;2023-01-09T04:56:10;4.40;83.80
61117;DHT22;47002;50.856;6.580;2023-01-09T04:58:35;4.50;83.80
61117;DHT22;47002;50.856;6.580;2023-01-09T05:01:02;4.60;83.90
61117;DHT22;47002;50.856;6.580;2023-01-09T05:03:28;4.60;83.90
61117;DHT22;47002;50.856;6.580;2023-01-09T05:05:54;4.60;83.80
61117;DHT22;47002;50.856;6.580;2023-01-09T05:08:19;4.60;84.10
61117;DHT22;47002;50.856;6.580;2023-01-09T05:10:45;4.60;84.40
61117;DHT22;47002;50.856;6.580;2023-01-09T05:13:11;4.60;84.20
61117;DHT22;47002;50.856;6.580;2023-01-09T05:15:36;4.60;84.40
61117;DHT22;47002;50.856;6.580;2023-01-09T05:18:04;4.70;84.40
61117;DHT22;47002;50.856;6.580;2023-01-09T05:20:29;4.70;84.40
61117;DHT22;47002;50.856;6.580;2023-01-09T05:22:55;4.70;84.60
61117;DHT22;47002;50.856;6.580;2023-01-09T05:25:20;4.80;84.80
61117;DHT22;47002;50.856;6.580;2023-01-09T05:27:46;4.70;84.80
61117;DHT22;47002;50.856;6.580;2023-01-09T05:30:12;4.80;84.90
61117;DHT22;47002;50.856;6.580;2023-01-09T05:32:38;4.80;84.90
61117;DHT22;47002;50.856;6.580;2023-01-09T05:35:06;4.80;84.80
61117;DHT22;47002;50.856;6.580;2023-01-09T05:37:32;4.90;84.90
61117;DHT22;47002;50.856;6.580;2023-01-09T05:39:57;4.90;85.00
61117;DHT22;47002;50.856;6.580;2023-01-09T05:42:23;4.90;84.90
61117;DHT22;47002;50.856;6.580;2023-01-09T05:44:49;4.90;85.00
61117;DHT22;47002;50.856;6.580;2023-01-09T05:47:14;4.90;85.30
61117;DHT22;47002;50.856;6.580;2023-01-09T05:49:40;4.90;85.50
61117;DHT22;47002;50.856;6.580;2023-01-09T05:52:07;4.90;85.50
61117;DHT22;47002;50.856;6.580;2023-01-09T05:54:33;4.90;85.40
61117;DHT22;47002;50.856;6.580;2023-01-09T05:56:58;4.90;85.30
61117;DHT22;47002;50.856;6.580;2023-01-09T05:59:24;5.00;85.30
61117;DHT22;47002;50.856;6.580;2023-01-09T06:01:50;5.00;85.30
61117;DHT22;47002;50.856;6.580;2023-01-09T06:04:16;5.00;85.20
61117;DHT22;47002;50.856;6.580;2023-01-09T06:06:41;5.10;85.00
61117;DHT22;47002;50.856;6.580;2023-01-09T06:09:08;5.10;84.70
61117;DHT22;47002;50.856;6.580;2023-01-09T06:11:34;5.10;84.70
61117;DHT22;47002;50.856;6.580;2023-01-09T06:14:00;5.10;84.60
61117;DHT22;47002;50.856;6.580;2023-01-09T06:16:26;5.20;84.60
61117;DHT22;47002;50.856;6.580;2023-01-09T06:18:51;5.20;84.60
61117;DHT22;47002;50.856;6.580;2023-01-09T06:21:17;5.20;84.40
61117;DHT22;47002;50.856;6.580;2023-01-09T06:23:43;5.30;84.50
61117;DHT22;47002;50.856;6.580;2023-01-09T06:26:10;5.20;84.70
61117;DHT22;47002;50.856;6.580;2023-01-09T06:28:36;5.20;84.70
61117;DHT22;47002;50.856;6.580;2023-01-09T06:31:01;5.20;84.30
61117;DHT22;47002;50.856;6.580;2023-01-09T06:33:27;5.20;84.00
61117;DHT22;47002;50.856;6.580;2023-01-09T06:35:53;5.30;83.70
61117;DHT22;47002;50.856;6.580;2023-01-09T06:38:18;5.40;83.60
61117;DHT22;47002;50.856;6.580;2023-01-09T06:40:44;5.40;83.50
61117;DHT22;47002;50.856;6.580;2023-01-09T06:43:11;5.40;83.40
61117;DHT22;47002;50.856;6.580;2023-01-09T06:45:37;5.50;83.10
61117;DHT22;47002;50.856;6.580;2023-01-09T06:48:02;5.50;82.80
61117;DHT22;47002;50.856;6.580;2023-01-09T06:50:28;5.50;83.10
61117;DHT22;47002;50.856;6.580;2023-01-09T06:52:54;5.50;83.10
61117;DHT22;47002;50.856;6.580;2023-01-09T06:55:19;5.50;83.20
61117;DHT22;47002;50.856;6.580;2023-01-09T06:57:45;5.50;83.00
61117;DHT22;47002;50.856;6.580;2023-01-09T07:00:13;5.50;83.10
61117;DHT22;47002;50.856;6.580;2023-01-09T07:02:39;5.50;83.00
61117;DHT22;47002;50.856;6.580;2023-01-09T07:05:05;5.50;83.00
61117;DHT22;47002;50.856;6.580;2023-01-09T07:07:30;5.50;83.00
61117;DHT22;47002;50.856;6.580;2023-01-09T07:09:56;5.50;82.90
61117;DHT22;47002;50.856;6.580;2023-01-09T07:12:22;5.50;82.70
61117;DHT22;47002;50.856;6.580;2023-01-09T07:14:47;5.60;81.80
61117;DHT22;47002;50.856;6.580;2023-01-09T07:17:14;5.70;81.40
61117;DHT22;47002;50.856;6.580;2023-01-09T07:19:40;5.70;81.70
61117;DHT22;47002;50.856;6.580;2023-01-09T07:22:06;5.80;81.10
61117;DHT22;47002;50.856;6.580;2023-01-09T07:24:31;5.80;81.00
61117;DHT22;47002;50.856;6.580;2023-01-09T07:26:57;5.80;81.20
61117;DHT22;47002;50.856;6.580;2023-01-09T07:29:23;5.80;80.10
61117;DHT22;47002;50.856;6.580;2023-01-09T07:31:48;5.90;80.40
61117;DHT22;47002;50.856;6.580;2023-01-09T07:34:15;5.90;80.30
61117;DHT22;47002;50.856;6.580;2023-01-09T07:36:41;5.90;81.00
61117;DHT22;47002;50.856;6.580;2023-01-09T07:39:07;5.90;81.10
61117;DHT22;47002;50.856;6.580;2023-01-09T07:41:32;5.90;80.10
61117;DHT22;47002;50.856;6.580;2023-01-09T07:43:58;6.00;80.30
61117;DHT22;47002;50.856;6.580;2023-01-09T07:46:24;6.00;80.00
61117;DHT22;47002;50.856;6.580;2023-01-09T07:48:49;6.00;79.30
61117;DHT22;47002;50.856;6.580;2023-01-09T07:51:16;6.10;80.30
61117;DHT22;47002;50.856;6.580;2023-01-09T07:53:42;6.10;79.90
61117;DHT22;47002;50.856;6.580;2023-01-09T07:56:08;6.10;80.00
61117;DHT22;47002;50.856;6.580;2023-01-09T07:58:34;6.10;80.20
61117;DHT22;47002;50.856;6.580;2023-01-09T08:00:59;6.10;79.80
61117;DHT22;47002;50.856;6.580;2023-01-09T08:03:25;6.10;79.40
61117;DHT22;47002;50.856;6.580;2023-01-09T08:05:51;6.10;79.60
61117;DHT22;47002;50.856;6.580;2023-01-09T08:08:18;6.10;80.00
61117;DHT22;47002;50.856;6.580;2023-01-09T08:10:43;6.10;79.90
61117;DHT22;47002;50.856;6.580;2023-01-09T08:13:09;6.10;79.90
61117;DHT22;47002;50.856;6.580;2023-01-09T08:15:35;6.10;80.10
61117;DHT22;47002;50.856;6.580;2023-01-09T08:18:01;6.10;79.90
61117;DHT22;47002;50.856;6.580;2023-01-09T08:20:26;6.10;80.50
61117;DHT22;47002;50.856;6.580;2023-01-09T08:22:52;6.10;80.20
61117;DHT22;47002;50.856;6.580;2023-01-09T08:25:19;6.10;80.30
61117;DHT22;47002;50.856;6.580;2023-01-09T08:27:45;6.10;80.40
61117;DHT22;47002;50.856;6.580;2023-01-09T08:30:11;6.20;80.90
61117;DHT22;47002;50.856;6.580;2023-01-09T08:32:37;6.10;80.60
61117;DHT22;47002;50.856;6.580;2023-01-09T08:35:04;6.10;80.60
61117;DHT22;47002;50.856;6.580;2023-01-09T08:37:30;6.10;81.00
61117;DHT22;47002;50.856;6.580;2023-01-09T08:39:55;6.10;80.70
61117;DHT22;47002;50.856;6.580;2023-01-09T08:42:23;6.10;81.20
61117;DHT22;47002;50.856;6.580;2023-01-09T08:44:48;6.10;80.70
61117;DHT22;47002;50.856;6.580;2023-01-09T08:47:15;6.10;80.40
61117;DHT22;47002;50.856;6.580;2023-01-09T08:49:42;6.20;80.00
61117;DHT22;47002;50.856;6.580;2023-01-09T08:52:08;6.20;79.70
61117;DHT22;47002;50.856;6.580;2023-01-09T08:54:34;6.30;79.90
61117;DHT22;47002;50.856;6.580;2023-01-09T08:56:59;6.20;80.40
61117;DHT22;47002;50.856;6.580;2023-01-09T08:59:26;6.20;79.00
61117;DHT22;47002;50.856;6.580;2023-01-09T09:01:52;6.30;79.60
61117;DHT22;47002;50.856;6.580;2023-01-09T09:04:18;6.30;79.20
61117;DHT22;47002;50.856;6.580;2023-01-09T09:06:43;6.30;78.90
61117;DHT22;47002;50.856;6.580;2023-01-09T09:09:10;6.40;78.70
61117;DHT22;47002;50.856;6.580;2023-01-09T09:11:36;6.40;79.30
61117;DHT22;47002;50.856;6.580;2023-01-09T09:14:01;6.40;79.00
61117;DHT22;47002;50.856;6.580;2023-01-09T09:16:28;6.40;79.00
61117;DHT22;47002;50.856;6.580;2023-01-09T09:18:54;6.40;79.30
61117;DHT22;47002;50.856;6.580;2023-01-09T09:21:20;6.40;79.10
61117;DHT22;47002;50.856;6.580;2023-01-09T09:23:46;6.40;79.10
61117;DHT22;47002;50.856;6.580;2023-01-09T09:26:11;6.40;79.20
61117;DHT22;47002;50.856;6.580;2023-01-09T09:28:37;6.40;79.10
61117;DHT22;47002;50.856;6.580;2023-01-09T09:31:04;6.40;79.20
61117;DHT22;47002;50.856;6.580;2023-01-09T09:33:31;6.50;79.00
61117;DHT22;47002;50.856;6.580;2023-01-09T09:35:57;6.50;79.10
61117;DHT22;47002;50.856;6.580;2023-01-09T09:38:23;6.50;79.30
61117;DHT22;47002;50.856;6.580;2023-01-09T09:41:09;6.50;79.50
61117;DHT22;47002;50.856;6.580;2023-01-09T09:43:57;6.60;79.20
61117;DHT22;47002;50.856;6.580;2023-01-09T09:46:37;6.60;79.00
61117;DHT22;47002;50.856;6.580;2023-01-09T09:49:13;6.70;78.50
61117;DHT22;47002;50.856;6.580;2023-01-09T09:51:49;6.60;78.60
61117;DHT22;47002;50.856;6.580;2023-01-09T09:54:20;6.60;78.40
61117;DHT22;47002;50.856;6.580;2023-01-09T09:56:51;6.60;79.50
61117;DHT22;47002;50.856;6.580;2023-01-09T09:59:21;6.60;78.90
61117;DHT22;47002;50.856;6.580;2023-01-09T10:01:52;6.60;79.10
61117;DHT22;47002;50.856;6.580;2023-01-09T10:04:23;6.60;79.20
61117;DHT22;47002;50.856;6.580;2023-01-09T10:06:53;6.50;79.80
61117;DHT22;47002;50.856;6.580;2023-01-09T10:09:28;6.50;80.40
61117;DHT22;47002;50.856;6.580;2023-01-09T10:12:01;6.40;79.60
61117;DHT22;47002;50.856;6.580;2023-01-09T10:14:28;6.50;80.20
61117;DHT22;47002;50.856;6.580;2023-01-09T10:17:11;6.50;80.00
61117;DHT22;47002;50.856;6.580;2023-01-09T10:19:58;6.50;80.30
61117;DHT22;47002;50.856;6.580;2023-01-09T10:22:37;6.50;79.00
61117;DHT22;47002;50.856;6.580;2023-01-09T10:25:16;6.50;79.20
61117;DHT22;47002;50.856;6.580;2023-01-09T10:27:56;6.60;78.60
61117;DHT22;47002;50.856;6.580;2023-01-09T10:30:30;6.60;78.60
61117;DHT22;47002;50.856;6.580;2023-01-09T10:33:04;6.60;78.90
61117;DHT22;47002;50.856;6.580;2023-01-09T10:38:30;6.70;78.30
61117;DHT22;47002;50.856;6.580;2023-01-09T10:40:59;6.70;79.10
61117;DHT22;47002;50.856;6.580;2023-01-09T10:43:33;6.70;78.60
61117;DHT22;47002;50.856;6.580;2023-01-09T10:46:03;6.70;78.20
61117;DHT22;47002;50.856;6.580;2023-01-09T10:48:32;6.80;78.40
61117;DHT22;47002;50.856;6.580;2023-01-09T10:51:01;6.80;77.80
61117;DHT22;47002;50.856;6.580;2023-01-09T10:53:31;6.80;77.80
61117;DHT22;47002;50.856;6.580;2023-01-09T10:56:01;6.80;78.30
61117;DHT22;47002;50.856;6.580;2023-01-09T10:58:29;6.70;79.30
61117;DHT22;47002;50.856;6.580;2023-01-09T11:00:55;6.70;79.40
61117;DHT22;47002;50.856;6.580;2023-01-09T11:03:22;6.70;78.50
61117;DHT22;47002;50.856;6.580;2023-01-09T11:05:51;6.70;78.90
61117;DHT22;47002;50.856;6.580;2023-01-09T11:08:23;6.70;78.60
61117;DHT22;47002;50.856;6.580;2023-01-09T11:10:52;6.70;78.50
61117;DHT22;47002;50.856;6.580;2023-01-09T11:13:20;6.80;78.90
61117;DHT22;47002;50.856;6.580;2023-01-09T11:16:01;6.70;79.80
61117;DHT22;47002;50.856;6.580;2023-01-09T11:18:27;6.70;80.10
61117;DHT22;47002;50.856;6.580;2023-01-09T11:20:53;6.60;79.40
61117;DHT22;47002;50.856;6.580;2023-01-09T11:23:31;6.60;80.50
61117;DHT22;47002;50.856;6.580;2023-01-09T11:25:59;6.50;79.00
61117;DHT22;47002;50.856;6.580;2023-01-09T11:28:25;6.40;78.80
61117;DHT22;47002;50.856;6.580;2023-01-09T11:30:53;6.40;79.60
61117;DHT22;47002;50.856;6.580;2023-01-09T11:33:21;6.40;79.50
61117;DHT22;47002;50.856;6.580;2023-01-09T11:35:57;6.30;78.80
61117;DHT22;47002;50.856;6.580;2023-01-09T11:38:23;6.20;79.90
61117;DHT22;47002;50.856;6.580;2023-01-09T11:40:53;6.10;80.00
61117;DHT22;47002;50.856;6.580;2023-01-09T11:43:24;6.10;80.10
61117;DHT22;47002;50.856;6.580;2023-01-09T11:45:53;6.20;80.90
61117;DHT22;47002;50.856;6.580;2023-01-09T11:48:28;6.30;80.50
61117;DHT22;47002;50.856;6.580;2023-01-09T11:50:56;6.30;80.20
61117;DHT22;47002;50.856;6.580;2023-01-09T11:53:23;6.20;80.90
61117;DHT22;47002;50.856;6.580;2023-01-09T11:55:58;6.10;80.40
61117;DHT22;47002;50.856;6.580;2023-01-09T11:58:26;6.10;80.10
61117;DHT22;47002;50.856;6.580;2023-01-09T12:00:59;6.10;80.70
61117;DHT22;47002;50.856;6.580;2023-01-09T12:03:42;6.10;81.00
61117;DHT22;47002;50.856;6.580;2023-01-09T12:06:21;6.10;81.20
61117;DHT22;47002;50.856;6.580;2023-01-09T12:08:55;6.20;81.10
61117;DHT22;47002;50.856;6.580;2023-01-09T12:11:31;6.20;80.80
61117;DHT22;47002;50.856;6.580;2023-01-09T12:14:17;6.20;79.90
61117;DHT22;47002;50.856;6.580;2023-01-09T12:16:57;6.20;79.60
61117;DHT22;47002;50.856;6.580;2023-01-09T12:19:51;6.20;79.60
61117;DHT22;47002;50.856;6.580;2023-01-09T12:22:28;6.20;80.00
61117;DHT22;47002;50.856;6.580;2023-01-09T12:25:12;6.30;79.10
61117;DHT22;47002;50.856;6.580;2023-01-09T12:27:56;6.30;79.70
61117;DHT22;47002;50.856;6.580;2023-01-09T12:30:38;6.50;80.00
61117;DHT22;47002;50.856;6.580;2023-01-09T12:33:25;6.50;78.80
61117;DHT22;47002;50.856;6.580;2023-01-09T12:36:13;6.60;78.70
61117;DHT22;47002;50.856;6.580;2023-01-09T12:38:46;6.50;78.60
61117;DHT22;47002;50.856;6.580;2023-01-09T12:44:55;6.40;79.10
61117;DHT22;47002;50.856;6.580;2023-01-09T12:47:41;6.40;80.10
61117;DHT22;47002;50.856;6.580;2023-01-09T12:50:31;6.40;80.00
61117;DHT22;47002;50.856;6.580;2023-01-09T12:53:06;6.40;79.50
61117;DHT22;47002;50.856;6.580;2023-01-09T12:55:37;6.40;79.70
61117;DHT22;47002;50.856;6.580;2023-01-09T12:58:10;6.40;79.90
61117;DHT22;47002;50.856;6.580;2023-01-09T13:00:40;6.30;80.10
61117;DHT22;47002;50.856;6.580;2023-01-09T13:03:13;6.40;80.40
61117;DHT22;47002;50.856;6.580;2023-01-09T13:05:44;6.30;80.40
61117;DHT22;47002;50.856;6.580;2023-01-09T13:08:14;6.30;80.40
61117;DHT22;47002;50.856;6.580;2023-01-09T13:10:45;6.30;80.50
61117;DHT22;47002;50.856;6.580;2023-01-09T13:13:15;6.30;80.20
61117;DHT22;47002;50.856;6.580;2023-01-09T13:15:46;6.30;80.40
61117;DHT22;47002;50.856;6.580;2023-01-09T13:18:18;6.20;80.50
61117;DHT22;47002;50.856;6.580;2023-01-09T13:20:47;6.20;80.80
61117;DHT22;47002;50.856;6.580;2023-01-09T13:23:20;6.10;81.20
61117;DHT22;47002;50.856;6.580;2023-01-09T13:25:48;6.20;81.20
61117;DHT22;47002;50.856;6.580;2023-01-09T13:28:18;6.10;81.50
61117;DHT22;47002;50.856;6.580;2023-01-09T13:31:11;6.10;81.70
61117;DHT22;47002;50.856;6.580;2023-01-09T13:33:41;6.00;82.10
61117;DHT22;47002;50.856;6.580;2023-01-09T13:36:22;5.90;82.20
61117;DHT22;47002;50.856;6.580;2023-01-09T13:38:49;5.90;82.30
61117;DHT22;47002;50.856;6.580;2023-01-09T13:41:16;5.90;82.20
61117;DHT22;47002;50.856;6.580;2023-01-09T13:43:54;5.90;82.60
61117;DHT22;47002;50.856;6.580;2023-01-09T13:46:21;5.90;82.60
61117;DHT22;47002;50.856;6.580;2023-01-09T13:48:47;5.90;82.90
61117;DHT22;47002;50.856;6.580;2023-01-09T13:51:36;5.80;82.90
61117;DHT22;47002;50.856;6.580;2023-01-09T13:57:43;5.90;82.50
61117;DHT22;47002;50.856;6.580;2023-01-09T14:00:46;5.90;82.50
61117;DHT22;47002;50.856;6.580;2023-01-09T14:03:20;5.90;82.20
61117;DHT22;47002;50.856;6.580;2023-01-09T14:06:10;5.90;82.20
61117;DHT22;47002;50.856;6.580;2023-01-09T14:08:36;5.90;81.50
61117;DHT22;47002;50.856;6.580;2023-01-09T14:11:03;5.90;81.90
61117;DHT22;47002;50.856;6.580;2023-01-09T14:13:30;5.90;81.90
61117;DHT22;47002;50.856;6.580;2023-01-09T14:16:03;5.90;82.60
61117;DHT22;47002;50.856;6.580;2023-01-09T14:18:33;5.80;82.80
61117;DHT22;47002;50.856;6.580;2023-01-09T14:21:01;5.80;83.00
61117;DHT22;47002;50.856;6.580;2023-01-09T14:23:29;5.70;82.80
61117;DHT22;47002;50.856;6.580;2023-01-09T14:25:56;5.80;82.60
61117;DHT22;47002;50.856;6.580;2023-01-09T14:28:23;5.80;83.20
61117;DHT22;47002;50.856;6.580;2023-01-09T14:31:07;5.80;83.10
61117;DHT22;47002;50.856;6.580;2023-01-09T14:33:35;5.80;83.40
61117;DHT22;47002;50.856;6.580;2023-01-09T14:36:09;5.70;82.40
61117;DHT22;47002;50.856;6.580;2023-01-09T14:38:39;5.70;83.00
61117;DHT22;47002;50.856;6.580;2023-01-09T14:41:10;5.70;82.90
61117;DHT22;47002;50.856;6.580;2023-01-09T14:43:50;5.70;82.80
61117;DHT22;47002;50.856;6.580;2023-01-09T14:46:18;5.60;82.50
61117;DHT22;47002;50.856;6.580;2023-01-09T14:48:58;5.60;82.80
61117;DHT22;47002;50.856;6.580;2023-01-09T14:51:26;5.50;82.60
61117;DHT22;47002;50.856;6.580;2023-01-09T14:53:56;5.50;82.90
61117;DHT22;47002;50.856;6.580;2023-01-09T14:56:25;5.50;83.10
61117;DHT22;47002;50.856;6.580;2023-01-09T14:59:05;5.50;83.10
61117;DHT22;47002;50.856;6.580;2023-01-09T15:01:35;5.40;83.40
61117;DHT22;47002;50.856;6.580;2023-01-09T15:04:05;5.40;83.50
61117;DHT22;47002;50.856;6.580;2023-01-09T15:06:35;5.40;83.40
61117;DHT22;47002;50.856;6.580;2023-01-09T15:09:05;5.40;84.60
61117;DHT22;47002;50.856;6.580;2023-01-09T15:11:32;5.50;84.00
61117;DHT22;47002;50.856;6.580;2023-01-09T15:13:58;5.50;83.50
61117;DHT22;47002;50.856;6.580;2023-01-09T15:16:25;5.50;83.50
61117;DHT22;47002;50.856;6.580;2023-01-09T15:18:53;5.40;83.50
61117;DHT22;47002;50.856;6.580;2023-01-09T15:21:23;5.40;83.30
61117;DHT22;47002;50.856;6.580;2023-01-09T15:23:49;5.40;83.10
61117;DHT22;47002;50.856;6.580;2023-01-09T15:26:24;5.40;82.80
61117;DHT22;47002;50.856;6.580;2023-01-09T15:28:51;5.40;83.40
61117;DHT22;47002;50.856;6.580;2023-01-09T15:31:19;5.30;83.50
61117;DHT22;47002;50.856;6.580;2023-01-09T15:33:47;5.20;83.90
61117;DHT22;47002;50.856;6.580;2023-01-09T15:36:17;5.20;83.90
61117;DHT22;47002;50.856;6.580;2023-01-09T15:38:46;5.20;84.10
61117;DHT22;47002;50.856;6.580;2023-01-09T15:41:15;5.20;84.40
61117;DHT22;47002;50.856;6.580;2023-01-09T15:43:42;5.20;84.80
61117;DHT22;47002;50.856;6.580;2023-01-09T15:46:09;5.30;87.20
61117;DHT22;47002;50.856;6.580;2023-01-09T15:48:35;5.50;85.60
61117;DHT22;47002;50.856;6.580;2023-01-09T15:51:03;5.40;83.80
61117;DHT22;47002;50.856;6.580;2023-01-09T15:53:30;5.30;84.10
61117;DHT22;47002;50.856;6.580;2023-01-09T15:56:13;5.10;84.40
61117;DHT22;47002;50.856;6.580;2023-01-09T15:58:41;5.00;84.70
61117;DHT22;47002;50.856;6.580;2023-01-09T16:01:20;5.00;85.00
61117;DHT22;47002;50.856;6.580;2023-01-09T16:03:48;4.90;85.10
61117;DHT22;47002;50.856;6.580;2023-01-09T16:06:16;4.90;85.10
61117;DHT22;47002;50.856;6.580;2023-01-09T16:08:48;4.90;85.00
61117;DHT22;47002;50.856;6.580;2023-01-09T16:11:22;4.90;84.70
61117;DHT22;47002;50.856;6.580;2023-01-09T16:13:48;4.90;84.70
61117;DHT22;47002;50.856;6.580;2023-01-09T16:16:22;4.90;84.20